Norup, Denmark
Current Conditions -  °F | °C
As of 4:50 AM on Saturday 29 Nov 2014 (Local Time) from EKBI Reporting Station
Overcast Overcast  
Wind Chill: 29°   Ceiling: 2500
Heat Index: 36°   Visibility: 6mi
Dew Point: 28°   Wind: 9mph
Humidity: 75%   Direction: 110°ESE
Pressure: 30.21"   Gusts: NA
Location:  55.72°N, 9.32°E
Report Text: EKBI 290350Z AUTO 11008KT 9999NDV OVC025/// 02/M02 Q1023
Loading
Personal Weather Stations






























Interactive Weather Map New forecast layout! Learn more

10-Day Weather Forecast

Advertisements
Track Severe Weather on mobile